createdAt,value
2019-03-30T00:01:41.133Z,6.75
2019-03-30T00:04:09.916Z,7.00
2019-03-30T00:06:38.831Z,7.58
2019-03-30T00:09:09.613Z,6.83
2019-03-30T00:11:38.824Z,7.85
2019-03-30T00:14:07.349Z,8.43
2019-03-30T00:16:36.985Z,8.60
2019-03-30T00:19:06.108Z,8.53
2019-03-30T00:21:35.085Z,9.83
2019-03-30T00:24:03.502Z,8.35
2019-03-30T00:26:32.672Z,7.90
2019-03-30T00:29:01.582Z,7.87
2019-03-30T00:31:31.596Z,7.65
2019-03-30T00:34:02.205Z,7.65
2019-03-30T00:36:31.357Z,7.55
2019-03-30T00:38:59.961Z,7.33
2019-03-30T00:41:28.420Z,7.05
2019-03-30T00:43:57.184Z,7.45
2019-03-30T00:46:26.079Z,7.05
2019-03-30T00:48:57.381Z,6.85
2019-03-30T00:51:26.324Z,8.23
2019-03-30T00:53:55.317Z,8.53
2019-03-30T00:56:24.917Z,8.33
2019-03-30T00:58:53.858Z,7.92
2019-03-30T01:01:22.786Z,8.18
2019-03-30T01:03:51.478Z,7.50
2019-03-30T01:06:19.951Z,7.67
2019-03-30T01:08:49.146Z,7.40
2019-03-30T01:11:17.995Z,6.92
2019-03-30T01:13:46.506Z,6.78
2019-03-30T01:16:15.390Z,6.92
2019-03-30T01:18:44.554Z,7.03
2019-03-30T01:21:13.980Z,6.95
2019-03-30T01:23:43.568Z,7.37
2019-03-30T01:26:12.316Z,7.55
2019-03-30T01:28:42.119Z,7.83
2019-03-30T01:31:10.597Z,8.13
2019-03-30T01:33:39.068Z,8.38
2019-03-30T01:36:08.244Z,9.50
2019-03-30T01:38:37.456Z,8.78
2019-03-30T01:41:07.230Z,8.63
2019-03-30T01:43:35.819Z,7.70
2019-03-30T01:46:04.273Z,7.45
2019-03-30T01:48:33.066Z,6.83
2019-03-30T01:51:01.974Z,7.47
2019-03-30T01:53:31.102Z,7.35
2019-03-30T01:56:00.946Z,6.87
2019-03-30T01:58:29.699Z,7.12
2019-03-30T02:00:58.802Z,7.37
2019-03-30T02:03:27.651Z,6.72
2019-03-30T02:05:56.264Z,7.47
2019-03-30T02:08:24.688Z,7.92
2019-03-30T02:10:53.586Z,8.75
2019-03-30T02:13:23.086Z,8.38
2019-03-30T02:15:52.763Z,8.23
2019-03-30T02:18:21.478Z,8.90
2019-03-30T02:20:50.559Z,9.03
2019-03-30T02:23:19.399Z,8.48
2019-03-30T02:25:48.172Z,7.97
2019-03-30T02:28:17.799Z,7.22
2019-03-30T02:30:46.762Z,7.80
2019-03-30T02:33:15.411Z,7.20
2019-03-30T02:35:44.602Z,7.20
2019-03-30T02:38:13.063Z,6.85
2019-03-30T02:40:41.640Z,7.15
2019-03-30T02:43:10.452Z,6.78
2019-03-30T02:45:39.958Z,7.67
2019-03-30T02:48:09.888Z,8.35
2019-03-30T02:50:49.374Z,8.75
2019-03-30T02:53:08.783Z,8.23
2019-03-30T02:55:37.764Z,8.65
2019-03-30T02:58:06.258Z,8.93
2019-03-30T03:00:35.499Z,8.33
2019-03-30T03:03:04.928Z,8.40
2019-03-30T03:05:34.228Z,7.50
2019-03-30T03:08:03.228Z,7.60
2019-03-30T03:10:32.397Z,8.00
2019-03-30T03:13:02.053Z,7.28
2019-03-30T03:15:30.613Z,8.00
2019-03-30T03:17:59.536Z,7.58
2019-03-30T03:20:28.649Z,6.62
2019-03-30T03:22:57.211Z,7.85
2019-03-30T03:25:25.993Z,7.97
2019-03-30T03:27:54.527Z,9.03
2019-03-30T03:30:23.079Z,9.45
2019-03-30T03:32:51.650Z,9.10
2019-03-30T03:35:20.691Z,8.75
2019-03-30T03:37:49.501Z,7.90
2019-03-30T03:40:18.403Z,7.45
2019-03-30T03:42:48.086Z,7.47
2019-03-30T03:45:16.968Z,7.47
2019-03-30T03:47:45.496Z,7.42
2019-03-30T03:50:40.440Z,7.03
2019-03-30T03:53:10.450Z,7.08
2019-03-30T03:55:39.944Z,7.80
2019-03-30T03:58:08.541Z,8.58
2019-03-30T04:00:37.394Z,8.28
2019-03-30T04:03:05.828Z,8.28
2019-03-30T04:05:34.918Z,8.68
2019-03-30T04:08:03.498Z,8.03
2019-03-30T04:10:33.833Z,7.92
2019-03-30T04:13:06.901Z,8.05
2019-03-30T04:15:35.246Z,7.65
2019-03-30T04:18:04.219Z,6.42
2019-03-30T04:20:32.735Z,7.20
2019-03-30T04:23:01.686Z,7.28
2019-03-30T04:25:30.587Z,7.17
2019-03-30T04:27:59.351Z,6.83
2019-03-30T04:30:28.227Z,6.90
2019-03-30T04:32:56.846Z,7.90
2019-03-30T04:35:26.149Z,8.55
2019-03-30T04:37:54.799Z,8.30
2019-03-30T04:40:23.531Z,8.30
2019-03-30T04:42:52.777Z,9.30
2019-03-30T04:45:21.302Z,8.60
2019-03-30T04:47:49.765Z,7.90
2019-03-30T04:50:18.840Z,6.83
2019-03-30T04:52:47.379Z,7.00
2019-03-30T04:55:17.119Z,6.53
2019-03-30T04:57:49.688Z,6.80
2019-03-30T05:00:17.176Z,6.12
2019-03-30T05:02:46.039Z,7.15
2019-03-30T05:05:14.878Z,7.22
2019-03-30T05:07:44.504Z,7.12
2019-03-30T05:10:13.006Z,7.87
2019-03-30T05:12:42.325Z,8.20
2019-03-30T05:15:10.950Z,8.10
2019-03-30T05:17:47.617Z,8.48
2019-03-30T05:20:10.701Z,8.20
2019-03-30T05:22:39.822Z,8.18
2019-03-30T05:25:08.339Z,8.25
2019-03-30T05:27:36.998Z,7.40
2019-03-30T05:30:06.146Z,7.10
2019-03-30T05:32:35.314Z,6.53
2019-03-30T05:35:04.411Z,7.55
2019-03-30T05:37:33.251Z,7.08
2019-03-30T05:40:02.382Z,6.90
2019-03-30T05:42:31.471Z,6.67
2019-03-30T05:45:00.469Z,6.75
2019-03-30T05:47:29.467Z,7.03
2019-03-30T05:49:58.205Z,7.90
2019-03-30T05:52:27.138Z,8.33
2019-03-30T05:54:56.484Z,7.90
2019-03-30T05:57:25.142Z,8.18
2019-03-30T05:59:55.950Z,7.55
2019-03-30T06:02:24.421Z,7.97
2019-03-30T06:04:52.869Z,7.55
2019-03-30T06:07:21.256Z,6.45
2019-03-30T06:09:49.781Z,5.92
2019-03-30T06:12:18.365Z,5.97
2019-03-30T06:14:47.389Z,6.42
2019-03-30T06:17:15.918Z,7.03
2019-03-30T06:19:45.785Z,6.33
2019-03-30T06:22:14.950Z,6.15
2019-03-30T06:24:43.547Z,5.80
2019-03-30T06:27:12.054Z,6.20
2019-03-30T06:29:41.595Z,7.08
2019-03-30T06:32:11.036Z,7.10
2019-03-30T06:34:39.798Z,7.62
2019-03-30T06:37:09.387Z,7.33
2019-03-30T06:39:38.752Z,7.58
2019-03-30T06:42:08.004Z,6.12
2019-03-30T06:44:37.543Z,6.47
2019-03-30T06:47:06.191Z,6.15
2019-03-30T06:49:35.448Z,5.58
2019-03-30T06:52:04.128Z,6.00
2019-03-30T06:54:33.296Z,5.30
2019-03-30T06:57:02.664Z,5.28
2019-03-30T06:59:31.696Z,5.28
2019-03-30T07:02:00.544Z,6.12
2019-03-30T07:04:30.234Z,6.05
2019-03-30T07:06:58.821Z,6.62
2019-03-30T07:09:27.318Z,5.97
2019-03-30T07:11:57.113Z,6.72
2019-03-30T07:14:25.819Z,7.20
2019-03-30T07:16:54.673Z,7.42
2019-03-30T07:19:23.513Z,6.25
2019-03-30T07:21:52.338Z,6.15
2019-03-30T07:24:21.879Z,5.47
2019-03-30T07:26:50.298Z,5.72
2019-03-30T07:29:19.254Z,4.65
2019-03-30T07:31:47.910Z,5.00
2019-03-30T07:34:16.767Z,5.75
2019-03-30T07:36:45.539Z,5.08
2019-03-30T07:39:15.085Z,4.78
2019-03-30T07:41:44.105Z,5.20
2019-03-30T07:44:12.633Z,6.12
2019-03-30T07:46:41.300Z,6.05
2019-03-30T07:49:09.884Z,6.70
2019-03-30T07:51:38.452Z,6.75
2019-03-30T07:54:08.430Z,5.80
2019-03-30T07:56:37.556Z,6.92
2019-03-30T07:59:07.057Z,6.87
2019-03-30T08:01:36.078Z,6.05
2019-03-30T08:04:04.736Z,4.87
2019-03-30T08:06:34.464Z,5.30
2019-03-30T08:09:03.927Z,5.25
2019-03-30T08:11:33.797Z,4.97
2019-03-30T08:14:02.940Z,4.85
2019-03-30T08:16:32.690Z,4.90
2019-03-30T08:19:01.885Z,5.50
2019-03-30T08:21:31.258Z,5.22
2019-03-30T08:23:59.991Z,6.53
2019-03-30T08:26:29.074Z,6.42
2019-03-30T08:28:58.463Z,5.70
2019-03-30T08:31:27.979Z,6.58
2019-03-30T08:33:56.798Z,6.10
2019-03-30T08:36:25.260Z,6.42
2019-03-30T08:38:54.159Z,5.67
2019-03-30T08:41:23.040Z,5.25
2019-03-30T08:43:51.720Z,4.85
2019-03-30T08:46:20.839Z,4.87
2019-03-30T08:48:49.484Z,5.58
2019-03-30T08:51:20.693Z,4.85
2019-03-30T08:53:54.908Z,4.92
2019-03-30T08:56:19.768Z,4.80
2019-03-30T08:58:49.120Z,5.37
2019-03-30T09:01:18.808Z,5.83
2019-03-30T09:03:48.135Z,6.22
2019-03-30T09:06:17.486Z,6.75
2019-03-30T09:08:46.161Z,6.03
2019-03-30T09:11:14.745Z,6.87
2019-03-30T09:13:44.337Z,7.12
2019-03-30T09:16:13.551Z,6.62
2019-03-30T09:18:42.562Z,6.15
2019-03-30T09:21:11.274Z,5.10
2019-03-30T09:23:40.512Z,5.33
2019-03-30T09:26:09.142Z,5.83
2019-03-30T09:28:39.159Z,5.65
2019-03-30T09:31:08.048Z,5.30
2019-03-30T09:33:36.758Z,5.45
2019-03-30T09:36:06.091Z,4.80
2019-03-30T09:38:34.964Z,6.35
2019-03-30T09:41:03.423Z,5.87
2019-03-30T09:43:32.491Z,5.90
2019-03-30T09:46:01.004Z,5.35
2019-03-30T09:48:29.916Z,5.50
2019-03-30T09:50:59.136Z,5.42
2019-03-30T09:53:27.944Z,5.40
2019-03-30T09:55:57.268Z,5.17
2019-03-30T09:58:27.354Z,5.30
2019-03-30T10:00:57.225Z,4.87
2019-03-30T10:03:27.129Z,5.40
2019-03-30T10:05:55.631Z,5.03
2019-03-30T10:08:24.591Z,4.80
2019-03-30T10:10:53.910Z,5.17
2019-03-30T10:13:22.873Z,4.63
2019-03-30T10:15:52.393Z,5.47
2019-03-30T10:18:21.662Z,5.50
2019-03-30T10:20:50.878Z,6.28
2019-03-30T10:23:22.034Z,6.00
2019-03-30T10:25:51.940Z,8.70
2019-03-30T10:28:22.188Z,9.20
2019-03-30T10:30:51.278Z,9.90
2019-03-30T10:33:20.133Z,9.90
2019-03-30T10:35:49.835Z,9.90
2019-03-30T10:38:18.787Z,10.15
2019-03-30T10:40:47.482Z,9.07
2019-03-30T10:43:16.794Z,8.75
2019-03-30T10:45:46.127Z,8.23
2019-03-30T10:48:16.984Z,8.40
2019-03-30T10:50:46.147Z,7.95
2019-03-30T10:53:14.851Z,8.50
2019-03-30T10:55:44.052Z,8.07
2019-03-30T10:58:13.044Z,8.35
2019-03-30T11:00:41.853Z,9.28
2019-03-30T11:03:10.948Z,8.77
2019-03-30T11:05:39.684Z,8.90
2019-03-30T11:08:09.550Z,8.10
2019-03-30T11:10:38.942Z,7.75
2019-03-30T11:13:07.330Z,7.72
2019-03-30T11:15:35.683Z,7.20
2019-03-30T11:18:04.903Z,7.00
2019-03-30T11:20:34.427Z,6.57
2019-03-30T11:23:04.950Z,6.63
2019-03-30T11:25:36.113Z,6.70
2019-03-30T11:28:04.838Z,6.60
2019-03-30T11:30:33.925Z,7.10
2019-03-30T11:33:04.363Z,7.70
2019-03-30T11:35:33.050Z,7.67
2019-03-30T11:38:01.545Z,6.60
2019-03-30T11:40:30.227Z,7.17
2019-03-30T11:42:59.393Z,8.10
2019-03-30T11:45:29.117Z,6.87
2019-03-30T11:47:58.439Z,6.60
2019-03-30T11:50:28.181Z,6.40
2019-03-30T11:52:56.937Z,6.47
2019-03-30T11:55:27.055Z,6.30
2019-03-30T11:57:55.677Z,6.55
2019-03-30T12:00:24.559Z,5.83
2019-03-30T12:02:53.129Z,5.87
2019-03-30T12:05:21.980Z,5.77
2019-03-30T12:07:53.124Z,6.30
2019-03-30T12:10:22.313Z,6.37
2019-03-30T12:12:51.072Z,5.90
2019-03-30T12:15:19.693Z,6.50
2019-03-30T12:17:48.482Z,6.53
2019-03-30T12:20:17.423Z,5.92
2019-03-30T12:22:46.378Z,6.42
2019-03-30T12:25:14.764Z,5.53
2019-03-30T12:27:44.242Z,5.67
2019-03-30T12:30:12.935Z,5.55
2019-03-30T12:32:41.587Z,6.00
2019-03-30T12:35:10.510Z,5.75
2019-03-30T12:37:39.646Z,6.15
2019-03-30T12:40:09.379Z,5.53
2019-03-30T12:42:41.962Z,5.50
2019-03-30T12:45:10.901Z,5.67
2019-03-30T12:47:40.212Z,6.57
2019-03-30T12:50:09.524Z,6.37
2019-03-30T12:52:38.826Z,6.60
2019-03-30T12:55:08.204Z,6.50
2019-03-30T12:57:37.714Z,6.45
2019-03-30T13:00:07.147Z,5.67
2019-03-30T13:02:35.884Z,6.00
2019-03-30T13:05:07.475Z,5.30
2019-03-30T13:07:36.461Z,5.00
2019-03-30T13:10:05.721Z,4.40
2019-03-30T13:12:34.755Z,4.93
2019-03-30T13:15:04.011Z,5.23
2019-03-30T13:17:32.726Z,4.47
2019-03-30T13:20:01.778Z,5.05
2019-03-30T13:22:31.263Z,4.60
2019-03-30T13:24:59.903Z,5.00
2019-03-30T13:27:28.838Z,5.20
2019-03-30T13:29:58.159Z,4.93
2019-03-30T13:32:26.890Z,5.45
2019-03-30T13:34:57.167Z,6.33
2019-03-30T13:37:26.115Z,6.20
2019-03-30T13:39:56.689Z,5.40
2019-03-30T13:42:25.915Z,5.00
2019-03-30T13:44:55.175Z,5.00
2019-03-30T13:47:23.674Z,4.35
2019-03-30T13:49:53.220Z,4.20
2019-03-30T13:52:23.079Z,4.67
2019-03-30T13:54:51.633Z,4.07
2019-03-30T13:57:21.438Z,3.70
2019-03-30T13:59:49.864Z,4.10
2019-03-30T14:02:20.057Z,4.30
2019-03-30T14:04:48.712Z,5.00
2019-03-30T14:07:18.379Z,5.17
2019-03-30T14:09:47.035Z,5.33
2019-03-30T14:12:16.627Z,4.87
2019-03-30T14:14:46.267Z,4.60
2019-03-30T14:17:15.171Z,4.93
2019-03-30T14:19:44.606Z,5.27
2019-03-30T14:22:13.867Z,4.47
2019-03-30T14:24:42.933Z,4.42
2019-03-30T14:27:11.593Z,4.33
2019-03-30T14:29:40.567Z,4.00
2019-03-30T14:32:09.622Z,4.20
2019-03-30T14:34:38.615Z,3.83
2019-03-30T14:37:07.828Z,3.80
2019-03-30T14:39:36.703Z,4.77
2019-03-30T14:42:06.158Z,4.15
2019-03-30T14:44:35.051Z,4.87
2019-03-30T14:47:03.791Z,4.60
2019-03-30T14:49:33.231Z,4.70
2019-03-30T14:52:01.911Z,5.40
2019-03-30T14:54:31.136Z,4.90
2019-03-30T14:57:00.372Z,4.53
2019-03-30T14:59:30.236Z,4.65
2019-03-30T15:01:59.431Z,4.15
2019-03-30T15:04:28.121Z,3.90
2019-03-30T15:06:56.933Z,4.00
2019-03-30T15:09:25.856Z,3.87
2019-03-30T15:11:55.311Z,3.90
2019-03-30T15:14:24.411Z,4.20
2019-03-30T15:16:53.354Z,4.60
2019-03-30T15:19:22.653Z,4.28
2019-03-30T15:21:51.652Z,5.33
2019-03-30T15:24:20.758Z,5.20
2019-03-30T15:26:59.658Z,4.15
2019-03-30T15:29:21.010Z,4.50
2019-03-30T15:31:49.714Z,4.77
2019-03-30T15:34:18.810Z,5.08
2019-03-30T15:36:47.783Z,4.53
2019-03-30T15:39:16.740Z,4.53
2019-03-30T15:41:45.799Z,4.73
2019-03-30T15:44:15.211Z,3.87
2019-03-30T15:46:44.235Z,4.37
2019-03-30T15:49:12.834Z,3.90
2019-03-30T15:51:41.700Z,4.72
2019-03-30T15:54:10.548Z,4.43
2019-03-30T15:56:39.815Z,6.77
2019-03-30T15:59:09.903Z,11.80
2019-03-30T16:01:38.489Z,8.90
2019-03-30T16:04:07.307Z,7.60
2019-03-30T16:06:37.505Z,8.28
2019-03-30T16:09:07.105Z,7.20
2019-03-30T16:11:38.400Z,7.58
2019-03-30T16:14:07.286Z,7.03
2019-03-30T16:16:37.041Z,6.10
2019-03-30T16:19:07.514Z,7.23
2019-03-30T16:21:37.168Z,6.27
2019-03-30T16:24:05.910Z,5.83
2019-03-30T16:26:41.947Z,5.57
2019-03-30T16:29:05.655Z,5.65
2019-03-30T16:31:35.463Z,5.37
2019-03-30T16:34:04.218Z,5.70
2019-03-30T16:36:33.575Z,6.25
2019-03-30T16:39:04.718Z,7.03
2019-03-30T16:41:34.622Z,6.55
2019-03-30T16:44:03.113Z,6.73
2019-03-30T16:46:32.072Z,5.87
2019-03-30T16:49:00.740Z,9.05
2019-03-30T16:51:30.320Z,7.80
2019-03-30T16:53:59.472Z,7.53
2019-03-30T16:56:28.683Z,6.65
2019-03-30T16:58:57.765Z,6.60
2019-03-30T17:01:26.460Z,5.55
2019-03-30T17:03:55.630Z,5.45
2019-03-30T17:06:24.728Z,5.40
2019-03-30T17:08:53.698Z,5.30
2019-03-30T17:11:22.825Z,5.65
2019-03-30T17:13:52.154Z,6.27
2019-03-30T17:16:21.461Z,6.90
2019-03-30T17:18:50.428Z,6.63
2019-03-30T17:21:19.955Z,6.00
2019-03-30T17:23:49.212Z,6.55
2019-03-30T17:26:18.822Z,6.33
2019-03-30T17:28:48.701Z,6.00
2019-03-30T17:31:18.115Z,6.00
2019-03-30T17:33:47.545Z,5.80
2019-03-30T17:36:18.717Z,5.30
2019-03-30T17:38:50.168Z,5.83
2019-03-30T17:41:18.964Z,5.90
2019-03-30T17:43:47.608Z,6.30
2019-03-30T17:46:17.655Z,6.37
2019-03-30T17:48:47.117Z,7.85
2019-03-30T17:51:16.493Z,8.47
2019-03-30T17:53:45.998Z,8.95
2019-03-30T17:56:15.333Z,10.43
2019-03-30T17:58:44.920Z,10.23
2019-03-30T18:01:15.714Z,10.80
2019-03-30T18:03:44.514Z,10.60
2019-03-30T18:06:13.265Z,9.57
2019-03-30T18:08:42.517Z,16.03
2019-03-30T18:11:11.610Z,19.40
2019-03-30T18:13:40.267Z,16.90
2019-03-30T18:16:09.223Z,14.50
2019-03-30T18:18:38.747Z,13.40
2019-03-30T18:21:07.407Z,12.37
2019-03-30T18:23:36.088Z,12.97
2019-03-30T18:26:05.285Z,14.17
2019-03-30T18:28:34.293Z,13.75
2019-03-30T18:31:02.922Z,11.93
2019-03-30T18:33:32.077Z,11.60
2019-03-30T18:36:01.420Z,11.63
2019-03-30T18:38:30.361Z,11.90
2019-03-30T18:40:58.877Z,10.70
2019-03-30T18:43:27.580Z,9.13
2019-03-30T18:45:56.677Z,9.63
2019-03-30T18:48:25.546Z,10.50
2019-03-30T18:50:54.053Z,8.73
2019-03-30T18:53:22.820Z,9.40
2019-03-30T18:55:52.431Z,9.53
2019-03-30T18:58:20.990Z,9.55
2019-03-30T19:00:49.694Z,10.75
2019-03-30T19:03:20.220Z,10.70
2019-03-30T19:05:50.490Z,10.85
2019-03-30T19:08:19.406Z,11.53
2019-03-30T19:10:48.283Z,10.30
2019-03-30T19:13:17.493Z,9.97
2019-03-30T19:15:46.715Z,9.90
2019-03-30T19:18:15.672Z,9.95
2019-03-30T19:20:45.151Z,9.55
2019-03-30T19:23:14.333Z,9.13
2019-03-30T19:25:43.280Z,9.40
2019-03-30T19:28:12.014Z,7.80
2019-03-30T19:30:42.347Z,8.53
2019-03-30T19:33:11.256Z,8.90
2019-03-30T19:35:40.377Z,8.37
2019-03-30T19:38:11.046Z,9.53
2019-03-30T19:40:39.984Z,9.80
2019-03-30T19:43:09.135Z,10.50
2019-03-30T19:45:37.894Z,10.43
2019-03-30T19:48:07.437Z,10.57
2019-03-30T19:50:37.205Z,10.60
2019-03-30T19:53:07.119Z,9.17
2019-03-30T19:55:36.697Z,8.70
2019-03-30T19:58:05.836Z,9.20
2019-03-30T20:00:38.494Z,8.88
2019-03-30T20:03:06.198Z,9.05
2019-03-30T20:05:35.455Z,9.45
2019-03-30T20:08:12.016Z,8.70
2019-03-30T20:10:52.164Z,9.00
2019-03-30T20:13:21.072Z,10.53
2019-03-30T20:15:50.373Z,10.98
2019-03-30T20:18:19.556Z,11.12
2019-03-30T20:20:48.200Z,10.23
2019-03-30T20:23:17.684Z,9.95
2019-03-30T20:25:46.552Z,10.90
2019-03-30T20:28:16.109Z,10.40
2019-03-30T20:30:44.713Z,11.50
2019-03-30T20:33:14.055Z,12.15
2019-03-30T20:35:43.252Z,12.93
2019-03-30T20:38:11.873Z,13.13
2019-03-30T20:40:41.382Z,14.87
2019-03-30T20:43:10.555Z,13.80
2019-03-30T20:45:39.325Z,14.10
2019-03-30T20:48:07.802Z,14.93
2019-03-30T20:50:36.849Z,14.03
2019-03-30T20:53:05.602Z,15.60
2019-03-30T20:55:35.530Z,15.53
2019-03-30T20:58:04.647Z,14.38
2019-03-30T21:00:33.174Z,17.15
2019-03-30T21:03:01.947Z,17.07
2019-03-30T21:05:30.766Z,16.65
2019-03-30T21:07:59.466Z,16.85
2019-03-30T21:10:28.135Z,16.73
2019-03-30T21:12:57.219Z,16.50
2019-03-30T21:15:25.950Z,19.10
2019-03-30T21:17:54.419Z,17.77
2019-03-30T21:20:23.065Z,19.55
2019-03-30T21:22:51.684Z,21.15
2019-03-30T21:25:20.314Z,19.48
2019-03-30T21:27:50.268Z,20.75
2019-03-30T21:30:19.500Z,20.68
2019-03-30T21:32:48.819Z,20.80
2019-03-30T21:35:18.609Z,20.48
2019-03-30T21:37:47.401Z,19.67
2019-03-30T21:40:16.263Z,19.87
2019-03-30T21:42:44.953Z,18.70
2019-03-30T21:45:13.549Z,18.73
2019-03-30T21:47:42.374Z,18.67
2019-03-30T21:50:12.991Z,18.27
2019-03-30T21:52:42.273Z,18.02
2019-03-30T21:55:11.258Z,17.15
2019-03-30T21:57:40.080Z,16.52
2019-03-30T22:00:10.997Z,17.07
2019-03-30T22:02:40.357Z,15.95
2019-03-30T22:05:08.903Z,16.45
2019-03-30T22:07:37.515Z,14.83
2019-03-30T22:10:07.773Z,15.80
2019-03-30T22:12:37.715Z,15.70
2019-03-30T22:15:06.807Z,16.17
2019-03-30T22:17:35.432Z,15.23
2019-03-30T22:20:04.485Z,15.80
2019-03-30T22:22:33.387Z,14.58
2019-03-30T22:25:02.427Z,14.23
2019-03-30T22:27:31.553Z,13.75
2019-03-30T22:30:01.962Z,12.43
2019-03-30T22:32:31.491Z,13.58
2019-03-30T22:35:00.450Z,13.98
2019-03-30T22:37:29.896Z,12.65
2019-03-30T22:39:58.801Z,12.43
2019-03-30T22:42:27.217Z,13.68
2019-03-30T22:44:56.167Z,13.70
2019-03-30T22:47:24.929Z,14.25
2019-03-30T22:49:54.134Z,13.13
2019-03-30T22:52:22.907Z,13.75
2019-03-30T22:54:52.310Z,13.43
2019-03-30T22:57:21.287Z,14.47
2019-03-30T22:59:49.935Z,12.88
2019-03-30T23:02:18.383Z,12.90
2019-03-30T23:04:47.307Z,13.62
2019-03-30T23:07:15.855Z,12.40
2019-03-30T23:09:44.424Z,11.93
2019-03-30T23:12:12.937Z,12.30
2019-03-30T23:14:41.602Z,11.90
2019-03-30T23:17:10.411Z,11.70
2019-03-30T23:19:39.483Z,11.88
2019-03-30T23:22:08.369Z,11.20
2019-03-30T23:24:37.482Z,14.05
2019-03-30T23:27:06.785Z,13.50
2019-03-30T23:29:35.573Z,12.23
2019-03-30T23:32:04.196Z,12.82
2019-03-30T23:34:33.195Z,11.80
2019-03-30T23:37:02.386Z,13.28
2019-03-30T23:39:32.029Z,11.70
2019-03-30T23:42:00.678Z,11.18
2019-03-30T23:44:30.025Z,10.85
2019-03-30T23:46:58.818Z,11.22
2019-03-30T23:49:28.370Z,11.33
2019-03-30T23:51:57.103Z,11.28
2019-03-30T23:54:27.435Z,11.73
2019-03-30T23:56:56.623Z,10.80
2019-03-30T23:59:25.144Z,10.40
